Strensall, United Kingdom
Current Conditions -  °F | °C
As of 3:50 PM on Sunday 25 Jan 2015 (Local Time) from EGXU Reporting Station
Broken Clouds Broken Clouds  
Wind Chill: 43°   Ceiling: 1500
Heat Index: 48°   Visibility: 6mi
Dew Point: 41°   Wind: 14mph
Humidity: 76%   Direction: 220°SW
Pressure: 30.21"   Gusts: NA
Location:  54.04°N, 1.04°W
Report Text: EGXU 251550Z AUTO 22012KT 9999 // BKN015/// BKN050/// BKN130/// 09/05 Q1023
Loading
Personal Weather Stations






























Interactive Weather Map New forecast layout! Learn more

10-Day Weather Forecast

Advertisements
Track Severe Weather on mobile